sensor_id;sensor_type;location;lat;lon;timestamp;P1;durP1;ratioP1;P2;durP2;ratioP2
7213;SDS011;3648;50.614;13.830;2022-12-07T00:00:51;9.90;;;6.23;;
7213;SDS011;3648;50.614;13.830;2022-12-07T00:03:18;4.63;;;3.47;;
7213;SDS011;3648;50.614;13.830;2022-12-07T00:05:45;5.63;;;3.03;;
7213;SDS011;3648;50.614;13.830;2022-12-07T00:08:12;6.43;;;4.50;;
7213;SDS011;3648;50.614;13.830;2022-12-07T00:10:40;6.83;;;3.50;;
7213;SDS011;3648;50.614;13.830;2022-12-07T00:13:07;3.53;;;3.00;;
7213;SDS011;3648;50.614;13.830;2022-12-07T00:15:34;4.70;;;3.13;;
7213;SDS011;3648;50.614;13.830;2022-12-07T00:18:01;2.87;;;2.37;;
7213;SDS011;3648;50.614;13.830;2022-12-07T00:20:28;3.57;;;2.40;;
7213;SDS011;3648;50.614;13.830;2022-12-07T00:22:56;3.03;;;2.63;;
7213;SDS011;3648;50.614;13.830;2022-12-07T00:25:23;4.67;;;2.83;;
7213;SDS011;3648;50.614;13.830;2022-12-07T00:27:51;2.30;;;2.10;;
7213;SDS011;3648;50.614;13.830;2022-12-07T00:30:18;3.00;;;2.10;;
7213;SDS011;3648;50.614;13.830;2022-12-07T00:32:45;3.20;;;2.17;;
7213;SDS011;3648;50.614;13.830;2022-12-07T00:35:12;3.13;;;2.03;;
7213;SDS011;3648;50.614;13.830;2022-12-07T00:37:39;4.90;;;2.50;;
7213;SDS011;3648;50.614;13.830;2022-12-07T00:40:07;3.47;;;2.80;;
7213;SDS011;3648;50.614;13.830;2022-12-07T00:42:34;2.97;;;2.67;;
7213;SDS011;3648;50.614;13.830;2022-12-07T00:45:03;2.83;;;2.53;;
7213;SDS011;3648;50.614;13.830;2022-12-07T00:47:30;3.47;;;2.60;;
7213;SDS011;3648;50.614;13.830;2022-12-07T00:49:57;2.93;;;2.63;;
7213;SDS011;3648;50.614;13.830;2022-12-07T00:52:25;2.97;;;2.73;;
7213;SDS011;3648;50.614;13.830;2022-12-07T00:54:52;4.27;;;3.23;;
7213;SDS011;3648;50.614;13.830;2022-12-07T00:57:19;3.10;;;2.80;;
7213;SDS011;3648;50.614;13.830;2022-12-07T00:59:46;3.87;;;3.43;;
7213;SDS011;3648;50.614;13.830;2022-12-07T01:02:15;4.70;;;3.30;;
7213;SDS011;3648;50.614;13.830;2022-12-07T01:04:42;3.63;;;3.13;;
7213;SDS011;3648;50.614;13.830;2022-12-07T01:07:09;3.77;;;3.40;;
7213;SDS011;3648;50.614;13.830;2022-12-07T01:09:36;4.13;;;3.73;;
7213;SDS011;3648;50.614;13.830;2022-12-07T01:12:03;3.77;;;3.40;;
7213;SDS011;3648;50.614;13.830;2022-12-07T01:14:30;4.60;;;4.20;;
7213;SDS011;3648;50.614;13.830;2022-12-07T01:16:57;4.70;;;4.17;;
7213;SDS011;3648;50.614;13.830;2022-12-07T01:19:25;5.23;;;4.57;;
7213;SDS011;3648;50.614;13.830;2022-12-07T01:21:52;6.23;;;4.63;;
7213;SDS011;3648;50.614;13.830;2022-12-07T01:24:19;5.30;;;4.60;;
7213;SDS011;3648;50.614;13.830;2022-12-07T01:26:48;5.07;;;4.47;;
7213;SDS011;3648;50.614;13.830;2022-12-07T01:29:15;5.67;;;4.57;;
7213;SDS011;3648;50.614;13.830;2022-12-07T01:31:42;6.00;;;5.13;;
7213;SDS011;3648;50.614;13.830;2022-12-07T01:34:09;7.93;;;6.13;;
7213;SDS011;3648;50.614;13.830;2022-12-07T01:36:38;6.93;;;6.23;;
7213;SDS011;3648;50.614;13.830;2022-12-07T01:39:05;8.03;;;6.57;;
7213;SDS011;3648;50.614;13.830;2022-12-07T01:41:34;6.43;;;5.53;;
7213;SDS011;3648;50.614;13.830;2022-12-07T01:44:08;7.03;;;5.43;;
7213;SDS011;3648;50.614;13.830;2022-12-07T01:46:39;6.90;;;4.63;;
7213;SDS011;3648;50.614;13.830;2022-12-07T01:49:08;8.10;;;5.40;;
7213;SDS011;3648;50.614;13.830;2022-12-07T01:51:39;6.50;;;4.77;;
7213;SDS011;3648;50.614;13.830;2022-12-07T01:54:07;4.50;;;4.03;;
7213;SDS011;3648;50.614;13.830;2022-12-07T01:56:36;3.97;;;3.30;;
7213;SDS011;3648;50.614;13.830;2022-12-07T01:59:04;5.37;;;3.33;;
7213;SDS011;3648;50.614;13.830;2022-12-07T02:01:31;5.50;;;3.60;;
7213;SDS011;3648;50.614;13.830;2022-12-07T02:03:58;3.83;;;3.53;;
7213;SDS011;3648;50.614;13.830;2022-12-07T02:06:25;4.73;;;3.30;;
7213;SDS011;3648;50.614;13.830;2022-12-07T02:08:54;4.53;;;3.10;;
7213;SDS011;3648;50.614;13.830;2022-12-07T02:11:21;4.77;;;3.83;;
7213;SDS011;3648;50.614;13.830;2022-12-07T02:13:48;4.73;;;3.30;;
7213;SDS011;3648;50.614;13.830;2022-12-07T02:16:19;3.60;;;3.03;;
7213;SDS011;3648;50.614;13.830;2022-12-07T02:18:56;3.80;;;3.30;;
7213;SDS011;3648;50.614;13.830;2022-12-07T02:21:37;4.00;;;3.53;;
7213;SDS011;3648;50.614;13.830;2022-12-07T02:24:22;3.50;;;3.20;;
7213;SDS011;3648;50.614;13.830;2022-12-07T02:29:56;3.57;;;3.23;;
7213;SDS011;3648;50.614;13.830;2022-12-07T02:32:27;3.23;;;2.90;;
7213;SDS011;3648;50.614;13.830;2022-12-07T02:35:04;4.40;;;3.60;;
7213;SDS011;3648;50.614;13.830;2022-12-07T02:37:35;4.13;;;3.73;;
7213;SDS011;3648;50.614;13.830;2022-12-07T02:40:07;5.03;;;4.10;;
7213;SDS011;3648;50.614;13.830;2022-12-07T02:42:41;4.23;;;3.83;;
7213;SDS011;3648;50.614;13.830;2022-12-07T02:45:15;5.33;;;4.77;;
7213;SDS011;3648;50.614;13.830;2022-12-07T02:47:46;5.57;;;4.57;;
7213;SDS011;3648;50.614;13.830;2022-12-07T02:50:14;4.93;;;4.37;;
7213;SDS011;3648;50.614;13.830;2022-12-07T02:52:44;5.77;;;4.20;;
7213;SDS011;3648;50.614;13.830;2022-12-07T02:55:11;4.83;;;4.33;;
7213;SDS011;3648;50.614;13.830;2022-12-07T02:57:48;6.43;;;4.27;;
7213;SDS011;3648;50.614;13.830;2022-12-07T03:00:31;4.93;;;4.43;;
7213;SDS011;3648;50.614;13.830;2022-12-07T03:03:11;5.17;;;4.47;;
7213;SDS011;3648;50.614;13.830;2022-12-07T03:05:46;5.43;;;4.33;;
7213;SDS011;3648;50.614;13.830;2022-12-07T03:08:25;6.13;;;4.47;;
7213;SDS011;3648;50.614;13.830;2022-12-07T03:11:00;6.23;;;4.60;;
7213;SDS011;3648;50.614;13.830;2022-12-07T03:13:30;5.43;;;4.30;;
7213;SDS011;3648;50.614;13.830;2022-12-07T03:16:07;6.33;;;4.97;;
7213;SDS011;3648;50.614;13.830;2022-12-07T03:18:38;5.77;;;4.97;;
7213;SDS011;3648;50.614;13.830;2022-12-07T03:21:08;6.00;;;5.00;;
7213;SDS011;3648;50.614;13.830;2022-12-07T03:23:40;5.27;;;4.37;;
7213;SDS011;3648;50.614;13.830;2022-12-07T03:26:11;5.27;;;4.60;;
7213;SDS011;3648;50.614;13.830;2022-12-07T03:28:42;5.00;;;4.50;;
7213;SDS011;3648;50.614;13.830;2022-12-07T03:31:13;6.23;;;4.70;;
7213;SDS011;3648;50.614;13.830;2022-12-07T03:33:45;5.63;;;4.33;;
7213;SDS011;3648;50.614;13.830;2022-12-07T03:36:20;4.60;;;4.03;;
7213;SDS011;3648;50.614;13.830;2022-12-07T03:38:53;4.93;;;3.80;;
7213;SDS011;3648;50.614;13.830;2022-12-07T03:41:24;4.07;;;3.67;;
7213;SDS011;3648;50.614;13.830;2022-12-07T03:43:53;3.97;;;3.50;;
7213;SDS011;3648;50.614;13.830;2022-12-07T03:46:25;4.50;;;4.10;;
7213;SDS011;3648;50.614;13.830;2022-12-07T03:49:03;5.93;;;4.23;;
7213;SDS011;3648;50.614;13.830;2022-12-07T03:51:37;4.93;;;4.20;;
7213;SDS011;3648;50.614;13.830;2022-12-07T03:54:10;5.53;;;4.90;;
7213;SDS011;3648;50.614;13.830;2022-12-07T03:56:42;5.97;;;4.77;;
7213;SDS011;3648;50.614;13.830;2022-12-07T03:59:11;5.30;;;4.50;;
7213;SDS011;3648;50.614;13.830;2022-12-07T04:01:42;3.83;;;3.43;;
7213;SDS011;3648;50.614;13.830;2022-12-07T04:04:09;5.73;;;4.30;;
7213;SDS011;3648;50.614;13.830;2022-12-07T04:06:36;6.07;;;4.47;;
7213;SDS011;3648;50.614;13.830;2022-12-07T04:09:03;3.87;;;3.30;;
7213;SDS011;3648;50.614;13.830;2022-12-07T04:11:30;3.97;;;3.50;;
7213;SDS011;3648;50.614;13.830;2022-12-07T04:13:57;4.20;;;3.70;;
7213;SDS011;3648;50.614;13.830;2022-12-07T04:16:43;3.60;;;3.30;;
7213;SDS011;3648;50.614;13.830;2022-12-07T04:19:10;4.30;;;3.37;;
7213;SDS011;3648;50.614;13.830;2022-12-07T04:21:37;4.37;;;3.70;;
7213;SDS011;3648;50.614;13.830;2022-12-07T04:24:05;3.90;;;3.20;;
7213;SDS011;3648;50.614;13.830;2022-12-07T04:26:32;4.00;;;3.40;;
7213;SDS011;3648;50.614;13.830;2022-12-07T04:28:59;4.00;;;3.60;;
7213;SDS011;3648;50.614;13.830;2022-12-07T04:31:26;4.80;;;3.73;;
7213;SDS011;3648;50.614;13.830;2022-12-07T04:33:54;4.00;;;3.40;;
7213;SDS011;3648;50.614;13.830;2022-12-07T04:36:21;3.50;;;3.20;;
7213;SDS011;3648;50.614;13.830;2022-12-07T04:38:48;4.70;;;4.00;;
7213;SDS011;3648;50.614;13.830;2022-12-07T04:41:15;4.13;;;3.57;;
7213;SDS011;3648;50.614;13.830;2022-12-07T04:43:42;6.00;;;4.27;;
7213;SDS011;3648;50.614;13.830;2022-12-07T04:46:09;4.13;;;3.70;;
7213;SDS011;3648;50.614;13.830;2022-12-07T04:48:36;4.10;;;3.70;;
7213;SDS011;3648;50.614;13.830;2022-12-07T04:51:05;4.17;;;3.63;;
7213;SDS011;3648;50.614;13.830;2022-12-07T04:53:32;5.83;;;4.37;;
7213;SDS011;3648;50.614;13.830;2022-12-07T04:55:59;6.40;;;4.40;;
7213;SDS011;3648;50.614;13.830;2022-12-07T04:58:27;5.27;;;4.43;;
7213;SDS011;3648;50.614;13.830;2022-12-07T05:00:54;4.97;;;4.20;;
7213;SDS011;3648;50.614;13.830;2022-12-07T05:03:21;5.97;;;4.70;;
7213;SDS011;3648;50.614;13.830;2022-12-07T05:05:48;6.03;;;4.57;;
7213;SDS011;3648;50.614;13.830;2022-12-07T05:08:17;5.80;;;4.43;;
7213;SDS011;3648;50.614;13.830;2022-12-07T05:10:44;6.70;;;5.40;;
7213;SDS011;3648;50.614;13.830;2022-12-07T05:13:11;6.57;;;4.70;;
7213;SDS011;3648;50.614;13.830;2022-12-07T05:15:38;6.40;;;5.03;;
7213;SDS011;3648;50.614;13.830;2022-12-07T05:18:05;7.37;;;5.93;;
7213;SDS011;3648;50.614;13.830;2022-12-07T05:20:31;8.00;;;6.37;;
7213;SDS011;3648;50.614;13.830;2022-12-07T05:22:58;10.47;;;7.30;;
7213;SDS011;3648;50.614;13.830;2022-12-07T05:25:27;9.47;;;6.17;;
7213;SDS011;3648;50.614;13.830;2022-12-07T05:27:54;5.60;;;4.80;;
7213;SDS011;3648;50.614;13.830;2022-12-07T05:30:22;7.53;;;5.90;;
7213;SDS011;3648;50.614;13.830;2022-12-07T05:32:49;8.67;;;6.93;;
7213;SDS011;3648;50.614;13.830;2022-12-07T05:35:17;10.20;;;7.13;;
7213;SDS011;3648;50.614;13.830;2022-12-07T05:37:44;10.17;;;6.67;;
7213;SDS011;3648;50.614;13.830;2022-12-07T05:40:11;8.53;;;6.23;;
7213;SDS011;3648;50.614;13.830;2022-12-07T05:42:41;9.43;;;7.57;;
7213;SDS011;3648;50.614;13.830;2022-12-07T05:45:08;11.80;;;8.97;;
7213;SDS011;3648;50.614;13.830;2022-12-07T05:47:36;9.17;;;6.83;;
7213;SDS011;3648;50.614;13.830;2022-12-07T05:50:05;8.60;;;5.97;;
7213;SDS011;3648;50.614;13.830;2022-12-07T05:52:33;8.27;;;6.83;;
7213;SDS011;3648;50.614;13.830;2022-12-07T05:55:00;7.70;;;5.57;;
7213;SDS011;3648;50.614;13.830;2022-12-07T05:57:27;6.63;;;5.73;;
7213;SDS011;3648;50.614;13.830;2022-12-07T05:59:55;6.77;;;5.97;;
7213;SDS011;3648;50.614;13.830;2022-12-07T06:02:21;9.03;;;7.17;;
7213;SDS011;3648;50.614;13.830;2022-12-07T06:04:48;10.87;;;7.20;;
7213;SDS011;3648;50.614;13.830;2022-12-07T06:07:15;10.47;;;6.93;;
7213;SDS011;3648;50.614;13.830;2022-12-07T06:09:43;9.17;;;6.93;;
7213;SDS011;3648;50.614;13.830;2022-12-07T06:12:10;10.90;;;7.23;;
7213;SDS011;3648;50.614;13.830;2022-12-07T06:14:57;10.90;;;7.43;;
7213;SDS011;3648;50.614;13.830;2022-12-07T06:17:24;9.77;;;7.00;;
7213;SDS011;3648;50.614;13.830;2022-12-07T06:19:51;7.90;;;4.37;;
7213;SDS011;3648;50.614;13.830;2022-12-07T06:22:19;6.10;;;4.33;;
7213;SDS011;3648;50.614;13.830;2022-12-07T06:24:46;5.47;;;3.93;;
7213;SDS011;3648;50.614;13.830;2022-12-07T06:27:13;5.63;;;3.97;;
7213;SDS011;3648;50.614;13.830;2022-12-07T06:29:40;5.57;;;4.50;;
7213;SDS011;3648;50.614;13.830;2022-12-07T06:32:09;7.50;;;4.80;;
7213;SDS011;3648;50.614;13.830;2022-12-07T06:34:37;7.17;;;5.23;;
7213;SDS011;3648;50.614;13.830;2022-12-07T06:37:04;7.57;;;4.90;;
7213;SDS011;3648;50.614;13.830;2022-12-07T06:39:31;10.30;;;5.43;;
7213;SDS011;3648;50.614;13.830;2022-12-07T06:41:58;7.60;;;5.10;;
7213;SDS011;3648;50.614;13.830;2022-12-07T06:44:25;5.80;;;4.83;;
7213;SDS011;3648;50.614;13.830;2022-12-07T06:46:52;5.87;;;4.03;;
7213;SDS011;3648;50.614;13.830;2022-12-07T06:49:20;13.47;;;8.43;;
7213;SDS011;3648;50.614;13.830;2022-12-07T06:51:48;13.93;;;8.00;;
7213;SDS011;3648;50.614;13.830;2022-12-07T06:54:15;13.93;;;8.37;;
7213;SDS011;3648;50.614;13.830;2022-12-07T06:56:42;14.93;;;7.50;;
7213;SDS011;3648;50.614;13.830;2022-12-07T06:59:10;12.03;;;7.90;;
7213;SDS011;3648;50.614;13.830;2022-12-07T07:01:37;8.27;;;5.73;;
7213;SDS011;3648;50.614;13.830;2022-12-07T07:04:04;8.10;;;5.53;;
7213;SDS011;3648;50.614;13.830;2022-12-07T07:06:33;7.40;;;4.97;;
7213;SDS011;3648;50.614;13.830;2022-12-07T07:09:00;7.97;;;5.20;;
7213;SDS011;3648;50.614;13.830;2022-12-07T07:11:27;6.10;;;4.67;;
7213;SDS011;3648;50.614;13.830;2022-12-07T07:13:54;10.53;;;6.33;;
7213;SDS011;3648;50.614;13.830;2022-12-07T07:16:27;13.63;;;9.70;;
7213;SDS011;3648;50.614;13.830;2022-12-07T07:18:54;11.23;;;7.97;;
7213;SDS011;3648;50.614;13.830;2022-12-07T07:21:21;10.83;;;7.60;;
7213;SDS011;3648;50.614;13.830;2022-12-07T07:23:50;8.33;;;7.47;;
7213;SDS011;3648;50.614;13.830;2022-12-07T07:26:17;12.80;;;10.80;;
7213;SDS011;3648;50.614;13.830;2022-12-07T07:28:44;14.07;;;11.07;;
7213;SDS011;3648;50.614;13.830;2022-12-07T07:31:11;12.37;;;9.90;;
7213;SDS011;3648;50.614;13.830;2022-12-07T07:33:38;10.20;;;8.17;;
7213;SDS011;3648;50.614;13.830;2022-12-07T07:36:05;9.10;;;7.30;;
7213;SDS011;3648;50.614;13.830;2022-12-07T07:38:33;10.97;;;7.73;;
7213;SDS011;3648;50.614;13.830;2022-12-07T07:41:01;8.23;;;7.10;;
7213;SDS011;3648;50.614;13.830;2022-12-07T07:43:28;12.80;;;9.40;;
7213;SDS011;3648;50.614;13.830;2022-12-07T07:45:55;11.47;;;7.13;;
7213;SDS011;3648;50.614;13.830;2022-12-07T07:48:22;8.10;;;6.17;;
7213;SDS011;3648;50.614;13.830;2022-12-07T07:50:50;9.37;;;6.00;;
7213;SDS011;3648;50.614;13.830;2022-12-07T07:53:17;10.87;;;6.67;;
7213;SDS011;3648;50.614;13.830;2022-12-07T07:55:49;8.93;;;6.67;;
7213;SDS011;3648;50.614;13.830;2022-12-07T07:58:20;9.40;;;6.70;;
7213;SDS011;3648;50.614;13.830;2022-12-07T08:00:47;8.77;;;5.87;;
7213;SDS011;3648;50.614;13.830;2022-12-07T08:03:14;14.30;;;7.47;;
7213;SDS011;3648;50.614;13.830;2022-12-07T08:05:42;8.13;;;6.60;;
7213;SDS011;3648;50.614;13.830;2022-12-07T08:08:09;11.60;;;7.00;;
7213;SDS011;3648;50.614;13.830;2022-12-07T08:10:37;12.07;;;7.43;;
7213;SDS011;3648;50.614;13.830;2022-12-07T08:13:04;19.10;;;12.27;;
7213;SDS011;3648;50.614;13.830;2022-12-07T08:15:38;15.33;;;10.33;;
7213;SDS011;3648;50.614;13.830;2022-12-07T08:18:07;13.07;;;10.13;;
7213;SDS011;3648;50.614;13.830;2022-12-07T08:20:35;11.47;;;8.60;;
7213;SDS011;3648;50.614;13.830;2022-12-07T08:23:03;12.10;;;8.00;;
7213;SDS011;3648;50.614;13.830;2022-12-07T08:25:32;11.17;;;7.97;;
7213;SDS011;3648;50.614;13.830;2022-12-07T08:28:00;8.50;;;7.37;;
7213;SDS011;3648;50.614;13.830;2022-12-07T08:30:27;8.37;;;7.30;;
7213;SDS011;3648;50.614;13.830;2022-12-07T08:33:08;8.73;;;7.00;;
7213;SDS011;3648;50.614;13.830;2022-12-07T08:35:35;9.27;;;6.90;;
7213;SDS011;3648;50.614;13.830;2022-12-07T08:38:03;9.17;;;6.73;;
7213;SDS011;3648;50.614;13.830;2022-12-07T08:40:30;9.97;;;6.57;;
7213;SDS011;3648;50.614;13.830;2022-12-07T08:42:57;7.07;;;6.30;;
7213;SDS011;3648;50.614;13.830;2022-12-07T08:45:24;8.93;;;6.07;;
7213;SDS011;3648;50.614;13.830;2022-12-07T08:47:59;6.97;;;6.27;;
7213;SDS011;3648;50.614;13.830;2022-12-07T08:50:32;8.03;;;6.50;;
7213;SDS011;3648;50.614;13.830;2022-12-07T08:53:00;9.30;;;6.73;;
7213;SDS011;3648;50.614;13.830;2022-12-07T08:55:28;8.37;;;6.53;;
7213;SDS011;3648;50.614;13.830;2022-12-07T08:57:55;8.80;;;6.33;;
7213;SDS011;3648;50.614;13.830;2022-12-07T09:00:24;8.50;;;7.50;;
7213;SDS011;3648;50.614;13.830;2022-12-07T09:02:52;11.80;;;10.20;;
7213;SDS011;3648;50.614;13.830;2022-12-07T09:05:21;12.00;;;9.13;;
7213;SDS011;3648;50.614;13.830;2022-12-07T09:07:49;11.90;;;8.50;;
7213;SDS011;3648;50.614;13.830;2022-12-07T09:10:20;11.17;;;9.23;;
7213;SDS011;3648;50.614;13.830;2022-12-07T09:12:47;11.17;;;9.17;;
7213;SDS011;3648;50.614;13.830;2022-12-07T09:15:14;13.43;;;10.03;;
7213;SDS011;3648;50.614;13.830;2022-12-07T09:17:42;13.07;;;10.83;;
7213;SDS011;3648;50.614;13.830;2022-12-07T09:20:09;17.67;;;12.67;;
7213;SDS011;3648;50.614;13.830;2022-12-07T09:22:38;14.93;;;11.00;;
7213;SDS011;3648;50.614;13.830;2022-12-07T09:25:05;23.10;;;13.50;;
7213;SDS011;3648;50.614;13.830;2022-12-07T09:27:33;20.43;;;13.03;;
7213;SDS011;3648;50.614;13.830;2022-12-07T09:30:00;21.33;;;13.60;;
7213;SDS011;3648;50.614;13.830;2022-12-07T09:32:27;15.23;;;8.73;;
7213;SDS011;3648;50.614;13.830;2022-12-07T09:34:54;13.37;;;9.00;;
7213;SDS011;3648;50.614;13.830;2022-12-07T09:37:21;13.23;;;9.87;;
7213;SDS011;3648;50.614;13.830;2022-12-07T09:39:50;16.20;;;10.53;;
7213;SDS011;3648;50.614;13.830;2022-12-07T09:42:25;17.20;;;10.83;;
7213;SDS011;3648;50.614;13.830;2022-12-07T09:44:55;16.63;;;11.20;;
7213;SDS011;3648;50.614;13.830;2022-12-07T09:47:23;12.60;;;10.10;;
7213;SDS011;3648;50.614;13.830;2022-12-07T09:49:50;10.97;;;8.50;;
7213;SDS011;3648;50.614;13.830;2022-12-07T09:52:18;13.80;;;10.13;;
7213;SDS011;3648;50.614;13.830;2022-12-07T09:54:49;13.37;;;9.23;;
7213;SDS011;3648;50.614;13.830;2022-12-07T09:57:18;7.97;;;6.53;;
7213;SDS011;3648;50.614;13.830;2022-12-07T09:59:51;9.50;;;5.70;;
7213;SDS011;3648;50.614;13.830;2022-12-07T10:02:24;11.03;;;5.40;;
7213;SDS011;3648;50.614;13.830;2022-12-07T10:04:58;7.63;;;5.10;;
7213;SDS011;3648;50.614;13.830;2022-12-07T10:07:26;7.07;;;5.80;;
7213;SDS011;3648;50.614;13.830;2022-12-07T10:09:55;8.23;;;4.80;;
7213;SDS011;3648;50.614;13.830;2022-12-07T10:12:22;6.00;;;4.83;;
7213;SDS011;3648;50.614;13.830;2022-12-07T10:14:53;14.63;;;8.97;;
7213;SDS011;3648;50.614;13.830;2022-12-07T10:17:29;11.17;;;8.30;;
7213;SDS011;3648;50.614;13.830;2022-12-07T10:20:14;6.30;;;5.20;;
7213;SDS011;3648;50.614;13.830;2022-12-07T10:22:56;8.17;;;5.00;;
7213;SDS011;3648;50.614;13.830;2022-12-07T10:25:27;6.23;;;3.97;;
7213;SDS011;3648;50.614;13.830;2022-12-07T10:27:57;6.43;;;4.23;;
7213;SDS011;3648;50.614;13.830;2022-12-07T10:30:25;5.20;;;4.70;;
7213;SDS011;3648;50.614;13.830;2022-12-07T10:32:53;5.30;;;4.10;;
7213;SDS011;3648;50.614;13.830;2022-12-07T10:35:22;7.73;;;6.13;;
7213;SDS011;3648;50.614;13.830;2022-12-07T10:37:51;7.40;;;4.40;;
7213;SDS011;3648;50.614;13.830;2022-12-07T10:40:28;6.40;;;3.80;;
7213;SDS011;3648;50.614;13.830;2022-12-07T10:43:17;5.50;;;3.43;;
7213;SDS011;3648;50.614;13.830;2022-12-07T10:46:04;3.23;;;2.90;;
7213;SDS011;3648;50.614;13.830;2022-12-07T10:48:48;6.63;;;2.90;;
7213;SDS011;3648;50.614;13.830;2022-12-07T10:51:26;7.23;;;3.30;;
7213;SDS011;3648;50.614;13.830;2022-12-07T10:53:59;4.33;;;3.07;;
7213;SDS011;3648;50.614;13.830;2022-12-07T10:56:50;6.10;;;3.50;;
7213;SDS011;3648;50.614;13.830;2022-12-07T10:59:49;3.80;;;3.20;;
7213;SDS011;3648;50.614;13.830;2022-12-07T11:02:29;4.47;;;3.33;;
7213;SDS011;3648;50.614;13.830;2022-12-07T11:05:11;5.77;;;2.90;;
7213;SDS011;3648;50.614;13.830;2022-12-07T11:07:49;4.93;;;2.93;;
7213;SDS011;3648;50.614;13.830;2022-12-07T11:10:26;5.30;;;3.27;;
7213;SDS011;3648;50.614;13.830;2022-12-07T11:13:12;4.70;;;2.70;;
7213;SDS011;3648;50.614;13.830;2022-12-07T11:15:53;4.03;;;2.60;;
7213;SDS011;3648;50.614;13.830;2022-12-07T11:18:29;3.70;;;2.63;;
7213;SDS011;3648;50.614;13.830;2022-12-07T11:21:04;4.87;;;2.33;;
7213;SDS011;3648;50.614;13.830;2022-12-07T11:23:43;7.67;;;2.47;;
7213;SDS011;3648;50.614;13.830;2022-12-07T11:26:16;4.13;;;2.10;;
7213;SDS011;3648;50.614;13.830;2022-12-07T11:28:59;5.03;;;3.10;;
7213;SDS011;3648;50.614;13.830;2022-12-07T11:31:47;3.57;;;2.20;;
7213;SDS011;3648;50.614;13.830;2022-12-07T11:34:26;6.33;;;4.63;;
7213;SDS011;3648;50.614;13.830;2022-12-07T11:37:02;3.97;;;3.37;;
7213;SDS011;3648;50.614;13.830;2022-12-07T11:39:39;6.43;;;3.03;;
7213;SDS011;3648;50.614;13.830;2022-12-07T11:42:12;4.57;;;2.30;;
7213;SDS011;3648;50.614;13.830;2022-12-07T11:44:53;3.00;;;2.10;;
7213;SDS011;3648;50.614;13.830;2022-12-07T11:47:29;5.87;;;2.77;;
7213;SDS011;3648;50.614;13.830;2022-12-07T11:50:05;4.77;;;2.77;;
7213;SDS011;3648;50.614;13.830;2022-12-07T11:52:43;6.47;;;3.63;;
7213;SDS011;3648;50.614;13.830;2022-12-07T11:55:18;8.03;;;3.90;;
7213;SDS011;3648;50.614;13.830;2022-12-07T11:57:50;9.50;;;5.07;;
7213;SDS011;3648;50.614;13.830;2022-12-07T12:00:23;5.03;;;3.60;;
7213;SDS011;3648;50.614;13.830;2022-12-07T12:02:52;9.13;;;4.37;;
7213;SDS011;3648;50.614;13.830;2022-12-07T12:05:28;4.93;;;3.10;;
7213;SDS011;3648;50.614;13.830;2022-12-07T12:10:53;9.47;;;5.53;;
7213;SDS011;3648;50.614;13.830;2022-12-07T12:13:49;7.70;;;4.60;;
7213;SDS011;3648;50.614;13.830;2022-12-07T12:19:37;6.43;;;3.90;;
7213;SDS011;3648;50.614;13.830;2022-12-07T12:22:22;4.20;;;2.90;;
7213;SDS011;3648;50.614;13.830;2022-12-07T12:25:05;6.50;;;3.33;;
7213;SDS011;3648;50.614;13.830;2022-12-07T12:30:29;4.83;;;2.50;;
7213;SDS011;3648;50.614;13.830;2022-12-07T12:33:13;3.07;;;2.77;;
7213;SDS011;3648;50.614;13.830;2022-12-07T12:39:11;3.77;;;2.93;;
7213;SDS011;3648;50.614;13.830;2022-12-07T12:41:51;6.80;;;4.60;;
7213;SDS011;3648;50.614;13.830;2022-12-07T12:44:40;7.77;;;4.90;;
7213;SDS011;3648;50.614;13.830;2022-12-07T12:50:28;7.77;;;4.97;;
7213;SDS011;3648;50.614;13.830;2022-12-07T12:53:03;9.10;;;5.80;;
7213;SDS011;3648;50.614;13.830;2022-12-07T12:58:53;12.97;;;7.07;;
7213;SDS011;3648;50.614;13.830;2022-12-07T13:01:49;16.13;;;11.10;;
7213;SDS011;3648;50.614;13.830;2022-12-07T13:10:37;11.13;;;6.67;;
7213;SDS011;3648;50.614;13.830;2022-12-07T13:22:45;18.77;;;14.57;;
7213;SDS011;3648;50.614;13.830;2022-12-07T13:25:18;13.80;;;10.03;;
7213;SDS011;3648;50.614;13.830;2022-12-07T13:28:00;12.03;;;8.20;;
7213;SDS011;3648;50.614;13.830;2022-12-07T13:30:33;9.70;;;6.40;;
7213;SDS011;3648;50.614;13.830;2022-12-07T13:33:11;6.30;;;4.03;;
7213;SDS011;3648;50.614;13.830;2022-12-07T13:35:40;7.53;;;5.57;;
7213;SDS011;3648;50.614;13.830;2022-12-07T13:38:17;5.70;;;3.47;;
7213;SDS011;3648;50.614;13.830;2022-12-07T13:41:05;6.43;;;4.17;;
7213;SDS011;3648;50.614;13.830;2022-12-07T13:43:42;3.67;;;2.63;;
7213;SDS011;3648;50.614;13.830;2022-12-07T13:46:11;3.07;;;2.73;;
7213;SDS011;3648;50.614;13.830;2022-12-07T13:48:43;2.83;;;2.40;;
7213;SDS011;3648;50.614;13.830;2022-12-07T13:51:16;4.40;;;3.00;;
7213;SDS011;3648;50.614;13.830;2022-12-07T13:53:52;4.40;;;3.70;;
7213;SDS011;3648;50.614;13.830;2022-12-07T13:56:25;4.10;;;2.83;;
7213;SDS011;3648;50.614;13.830;2022-12-07T13:58:57;3.90;;;2.80;;
7213;SDS011;3648;50.614;13.830;2022-12-07T14:01:25;4.90;;;3.20;;
7213;SDS011;3648;50.614;13.830;2022-12-07T14:03:53;6.00;;;3.00;;
7213;SDS011;3648;50.614;13.830;2022-12-07T14:06:23;5.00;;;2.53;;
7213;SDS011;3648;50.614;13.830;2022-12-07T14:09:16;5.40;;;3.33;;
7213;SDS011;3648;50.614;13.830;2022-12-07T14:11:46;10.40;;;4.67;;
7213;SDS011;3648;50.614;13.830;2022-12-07T14:14:16;11.33;;;6.33;;
7213;SDS011;3648;50.614;13.830;2022-12-07T14:16:55;5.20;;;3.80;;
7213;SDS011;3648;50.614;13.830;2022-12-07T14:19:46;2.30;;;2.03;;
7213;SDS011;3648;50.614;13.830;2022-12-07T14:22:25;3.70;;;3.00;;
7213;SDS011;3648;50.614;13.830;2022-12-07T14:25:00;2.77;;;1.83;;
7213;SDS011;3648;50.614;13.830;2022-12-07T14:27:38;3.43;;;2.17;;
7213;SDS011;3648;50.614;13.830;2022-12-07T14:30:15;3.70;;;2.47;;
7213;SDS011;3648;50.614;13.830;2022-12-07T14:32:43;13.73;;;8.77;;
7213;SDS011;3648;50.614;13.830;2022-12-07T14:35:14;12.63;;;7.57;;
7213;SDS011;3648;50.614;13.830;2022-12-07T14:37:43;7.73;;;5.00;;
7213;SDS011;3648;50.614;13.830;2022-12-07T14:40:14;6.13;;;4.37;;
7213;SDS011;3648;50.614;13.830;2022-12-07T14:42:43;5.33;;;2.97;;
7213;SDS011;3648;50.614;13.830;2022-12-07T14:45:13;5.27;;;3.27;;
7213;SDS011;3648;50.614;13.830;2022-12-07T14:47:42;6.50;;;4.67;;
7213;SDS011;3648;50.614;13.830;2022-12-07T14:50:11;3.77;;;2.60;;
7213;SDS011;3648;50.614;13.830;2022-12-07T14:52:39;3.73;;;2.50;;
7213;SDS011;3648;50.614;13.830;2022-12-07T14:55:14;3.23;;;2.67;;
7213;SDS011;3648;50.614;13.830;2022-12-07T14:57:46;3.37;;;2.30;;
7213;SDS011;3648;50.614;13.830;2022-12-07T15:00:14;5.00;;;2.17;;
7213;SDS011;3648;50.614;13.830;2022-12-07T15:02:43;3.83;;;2.43;;
7213;SDS011;3648;50.614;13.830;2022-12-07T15:05:10;4.97;;;2.43;;
7213;SDS011;3648;50.614;13.830;2022-12-07T15:07:38;4.97;;;3.37;;
7213;SDS011;3648;50.614;13.830;2022-12-07T15:10:06;5.30;;;2.87;;
7213;SDS011;3648;50.614;13.830;2022-12-07T15:12:41;3.27;;;2.30;;
7213;SDS011;3648;50.614;13.830;2022-12-07T15:15:09;3.10;;;2.37;;
7213;SDS011;3648;50.614;13.830;2022-12-07T15:17:37;5.23;;;2.80;;
7213;SDS011;3648;50.614;13.830;2022-12-07T15:20:04;4.70;;;2.93;;
7213;SDS011;3648;50.614;13.830;2022-12-07T15:22:32;5.07;;;3.00;;
7213;SDS011;3648;50.614;13.830;2022-12-07T15:25:01;4.33;;;2.77;;
7213;SDS011;3648;50.614;13.830;2022-12-07T15:27:29;7.50;;;3.43;;
7213;SDS011;3648;50.614;13.830;2022-12-07T15:29:58;4.83;;;3.20;;
7213;SDS011;3648;50.614;13.830;2022-12-07T15:32:25;4.70;;;3.30;;
7213;SDS011;3648;50.614;13.830;2022-12-07T15:34:52;4.97;;;2.70;;
7213;SDS011;3648;50.614;13.830;2022-12-07T15:37:21;4.13;;;2.40;;
7213;SDS011;3648;50.614;13.830;2022-12-07T15:39:48;4.87;;;2.40;;
7213;SDS011;3648;50.614;13.830;2022-12-07T15:42:15;3.33;;;2.37;;
7213;SDS011;3648;50.614;13.830;2022-12-07T15:44:42;3.70;;;2.07;;
7213;SDS011;3648;50.614;13.830;2022-12-07T15:47:28;4.00;;;2.57;;
7213;SDS011;3648;50.614;13.830;2022-12-07T15:49:56;5.90;;;3.20;;
7213;SDS011;3648;50.614;13.830;2022-12-07T15:52:23;4.70;;;3.70;;
7213;SDS011;3648;50.614;13.830;2022-12-07T15:54:50;4.50;;;3.93;;
7213;SDS011;3648;50.614;13.830;2022-12-07T15:57:19;8.37;;;3.13;;